Time;durP1;ratioP1;P1;durP2;ratioP2;P2;SDS_P1;SDS_P2;PMS_P1;PMS_P2;Temp;Humidity;BMP_temperature;BMP_pressure;BME280_temperature;BME280_humidity;BME280_pressure;Samples;Min_cycle;Max_cycle;Signal;HPM_P1;HPM_P2
2022/12/25 00:02:09;;;;;;;30.98;9.30;;;8.30;99.90;;;;;;4993401;28;20034;-93
2022/12/25 00:04:34;;;;;;;27.00;7.10;;;8.20;99.90;;;;;;4987533;28;20061;-93
2022/12/25 00:07:00;;;;;;;36.70;7.70;;;8.30;99.90;;;;;;4980575;28;20022;-93
2022/12/25 00:09:26;;;;;;;19.20;6.60;;;8.30;99.90;;;;;;5006365;28;20443;-94
2022/12/25 00:12:13;;;;;;;28.85;6.75;;;8.30;99.90;;;;;;4975680;28;20033;-93
2022/12/25 00:14:39;;;;;;;30.75;7.18;;;8.40;99.90;;;;;;4988681;28;20046;-93
2022/12/25 00:17:04;;;;;;;24.70;6.80;;;8.30;99.90;;;;;;4962850;28;20034;-94
2022/12/25 00:19:30;;;;;;;20.73;5.93;;;8.40;99.90;;;;;;4998008;28;20026;-93
2022/12/25 00:21:55;;;;;;;31.27;6.90;;;8.40;99.90;;;;;;4994354;28;20049;-94
2022/12/25 00:24:21;;;;;;;22.67;6.30;;;8.40;99.90;;;;;;4988128;28;20039;-92
2022/12/25 00:26:46;;;;;;;34.08;7.20;;;8.40;99.90;;;;;;4975176;28;20026;-93
2022/12/25 00:29:12;;;;;;;27.95;7.55;;;8.40;99.90;;;;;;4971574;28;20033;-93
2022/12/25 00:31:38;;;;;;;21.17;6.20;;;8.40;99.90;;;;;;4980606;28;20542;-93
2022/12/25 00:34:04;;;;;;;27.92;6.07;;;8.40;99.90;;;;;;4980248;28;20081;-93
2022/12/25 00:36:29;;;;;;;30.48;7.53;;;8.50;99.90;;;;;;4980349;28;20037;-92
2022/12/25 00:38:55;;;;;;;25.45;5.95;;;8.40;99.90;;;;;;4976276;28;20427;-93
2022/12/25 00:44:08;;;;;;;23.15;5.95;;;8.40;99.90;;;;;;4997044;28;20073;-93
2022/12/25 00:46:34;;;;;;;24.45;7.43;;;8.40;99.90;;;;;;4979256;28;20037;-93
2022/12/25 00:49:00;;;;;;;30.13;6.68;;;8.40;99.90;;;;;;4986097;28;20073;-92
2022/12/25 00:51:25;;;;;;;29.80;6.57;;;8.40;99.90;;;;;;4977170;28;20484;-93
2022/12/25 00:53:51;;;;;;;23.17;6.10;;;8.40;99.90;;;;;;4996446;28;20105;-93
2022/12/25 00:56:17;;;;;;;18.67;5.43;;;8.40;99.90;;;;;;4996753;28;20030;-92
2022/12/25 00:58:43;;;;;;;25.38;6.57;;;8.50;99.90;;;;;;4982223;28;20031;-93
2022/12/25 01:01:09;;;;;;;28.02;7.22;;;8.50;99.90;;;;;;4973778;28;20467;-91
2022/12/25 01:03:35;;;;;;;26.42;6.93;;;8.50;99.90;;;;;;4995635;28;20038;-93
2022/12/25 01:06:03;;;;;;;29.38;6.00;;;8.50;99.90;;;;;;4979169;28;20034;-92
2022/12/25 01:08:32;;;;;;;23.58;6.38;;;8.50;99.90;;;;;;4981926;28;20026;-91
2022/12/25 01:11:00;;;;;;;21.15;6.32;;;8.50;99.90;;;;;;4987110;28;20068;-91
2022/12/25 01:13:27;;;;;;;22.02;6.00;;;8.60;99.90;;;;;;4997771;28;20026;-92
2022/12/25 01:15:53;;;;;;;36.15;7.63;;;8.60;99.90;;;;;;4999777;28;20105;-91
2022/12/25 01:18:20;;;;;;;25.58;6.43;;;8.60;99.90;;;;;;4982786;28;20058;-91
2022/12/25 01:20:46;;;;;;;22.48;6.43;;;8.60;99.90;;;;;;4982694;28;20022;-93
2022/12/25 01:23:12;;;;;;;26.13;6.38;;;8.60;99.90;;;;;;4982072;28;20442;-92
2022/12/25 01:26:03;;;;;;;28.27;6.93;;;8.60;99.90;;;;;;4998734;28;20093;-92
2022/12/25 01:28:29;;;;;;;24.38;5.70;;;8.60;99.90;;;;;;4980376;28;20086;-93
2022/12/25 01:30:55;;;;;;;23.83;6.80;;;8.70;99.90;;;;;;4979663;28;20023;-94
2022/12/25 01:33:20;;;;;;;27.13;6.68;;;8.60;99.90;;;;;;5005500;28;20152;-92
2022/12/25 01:35:46;;;;;;;24.63;7.00;;;8.70;99.90;;;;;;4998086;28;20038;-93
2022/12/25 01:38:11;;;;;;;24.50;7.07;;;8.70;99.90;;;;;;4985594;28;20041;-93
2022/12/25 01:40:37;;;;;;;26.15;6.53;;;8.70;99.90;;;;;;4982963;28;20501;-93
2022/12/25 01:43:02;;;;;;;26.25;7.13;;;8.80;99.90;;;;;;4999763;28;20084;-92
2022/12/25 01:45:39;;;;;;;19.70;6.25;;;8.80;99.90;;;;;;4999810;28;20088;-92
2022/12/25 01:48:13;;;;;;;29.95;6.90;;;8.70;99.90;;;;;;4996969;28;20042;-93
2022/12/25 01:50:43;;;;;;;22.17;7.32;;;8.70;99.90;;;;;;4995637;28;20502;-93
2022/12/25 01:53:08;;;;;;;30.30;7.82;;;8.80;99.90;;;;;;4979949;28;20023;-93
2022/12/25 01:55:36;;;;;;;23.15;6.18;;;8.70;99.90;;;;;;5000556;28;20105;-93
2022/12/25 01:58:02;;;;;;;23.30;6.65;;;8.80;99.90;;;;;;4999843;28;20050;-93
2022/12/25 02:00:27;;;;;;;27.85;6.35;;;8.70;99.90;;;;;;5004589;28;20026;-93
2022/12/25 02:02:53;;;;;;;25.58;7.05;;;8.70;99.90;;;;;;4996497;28;20129;-92
2022/12/25 02:05:25;;;;;;;24.33;7.78;;;8.70;99.90;;;;;;4999500;28;20049;-94
2022/12/25 02:07:51;;;;;;;26.05;6.80;;;8.70;99.90;;;;;;4988451;28;20026;-93
2022/12/25 02:10:17;;;;;;;25.02;6.60;;;8.70;99.90;;;;;;4998150;28;20065;-93
2022/12/25 02:12:44;;;;;;;27.35;7.13;;;8.80;99.90;;;;;;4986723;28;20100;-93
2022/12/25 02:15:17;;;;;;;23.27;6.35;;;8.70;99.90;;;;;;5000065;28;20026;-92
2022/12/25 02:17:54;;;;;;;21.77;6.93;;;8.70;99.90;;;;;;4982704;28;20521;-93
2022/12/25 02:20:42;;;;;;;28.58;7.13;;;8.80;99.90;;;;;;4983292;28;20053;-93
2022/12/25 02:23:14;;;;;;;20.00;6.20;;;8.80;99.90;;;;;;4999321;28;20029;-94
2022/12/25 02:26:01;;;;;;;19.33;6.10;;;8.70;99.90;;;;;;4998968;28;20034;-93
2022/12/25 02:29:03;;;;;;;22.85;6.60;;;8.80;99.90;;;;;;4998769;28;20110;-92
2022/12/25 02:31:41;;;;;;;18.73;6.75;;;8.70;99.90;;;;;;4979647;28;20371;-94
2022/12/25 02:34:40;;;;;;;22.42;7.30;;;8.70;99.90;;;;;;4989580;28;20026;-94
2022/12/25 02:37:25;;;;;;;23.20;6.20;;;8.70;99.90;;;;;;4999014;28;20138;-93
2022/12/25 02:40:01;;;;;;;21.13;7.00;;;8.70;99.90;;;;;;5013965;28;20037;-93
2022/12/25 03:07:55;;;;;;;16.50;6.47;;;8.40;99.90;;;;;;4988223;28;20096;-94
2022/12/25 03:13:19;;;;;;;21.55;6.82;;;8.40;99.90;;;;;;4981092;28;20037;-94
2022/12/25 03:18:31;;;;;;;22.25;6.45;;;8.40;99.90;;;;;;4986906;28;20102;-94
2022/12/25 03:31:10;;;;;;;21.27;6.78;;;8.40;99.90;;;;;;4985035;28;20501;-94
2022/12/25 03:32:38;;;;;;;13.75;6.82;;;8.40;99.90;;;;;;4984232;28;20496;-94
2022/12/25 03:35:24;;;;;;;12.30;5.20;;;8.40;99.90;;;;;;4979296;28;20023;-94
2022/12/25 03:38:51;;;;;;;19.60;6.10;;;8.30;99.90;;;;;;5011125;28;20030;-94
2022/12/25 03:47:47;;;;;;;18.27;6.03;;;8.20;99.90;;;;;;4975347;28;20106;-94
2022/12/25 04:37:06;;;;;;;16.77;5.35;;;8.00;99.90;;;;;;4975984;28;20049;-94
2022/12/25 04:39:32;;;;;;;16.05;5.82;;;8.00;99.90;;;;;;4982402;28;20027;-94
2022/12/25 04:41:59;;;;;;;18.20;6.90;;;8.00;99.90;;;;;;4996809;28;20086;-94
2022/12/25 04:44:25;;;;;;;16.05;6.18;;;8.00;99.90;;;;;;4980930;28;20399;-93
2022/12/25 04:46:51;;;;;;;18.40;7.07;;;8.00;99.90;;;;;;4980123;28;20026;-93
2022/12/25 04:49:16;;;;;;;17.08;5.88;;;8.00;99.90;;;;;;5007509;28;20094;-93
2022/12/25 04:51:42;;;;;;;16.33;5.68;;;8.00;99.90;;;;;;4945620;28;20027;-93
2022/12/25 04:54:07;;;;;;;20.80;5.95;;;8.00;99.90;;;;;;4979736;28;20018;-95
2022/12/25 04:56:33;;;;;;;17.50;5.68;;;8.00;99.90;;;;;;4983425;28;20027;-93
2022/12/25 04:58:58;;;;;;;21.85;5.70;;;8.00;99.90;;;;;;4980294;28;20046;-94
2022/12/25 05:01:24;;;;;;;20.80;6.40;;;8.00;99.90;;;;;;4980578;28;20090;-94
2022/12/25 05:03:50;;;;;;;20.35;5.88;;;7.90;99.90;;;;;;4978178;28;20042;-94
2022/12/25 05:06:15;;;;;;;20.80;6.38;;;7.90;99.90;;;;;;4980592;28;20033;-93
2022/12/25 05:08:41;;;;;;;17.98;6.38;;;7.80;99.90;;;;;;4979067;28;20071;-93
2022/12/25 05:11:09;;;;;;;18.35;5.30;;;7.80;99.90;;;;;;4978557;28;20515;-94
2022/12/25 05:13:36;;;;;;;14.27;5.05;;;7.70;99.90;;;;;;4983034;28;20034;-93
2022/12/25 05:16:05;;;;;;;17.30;5.57;;;7.60;99.90;;;;;;4995477;28;20031;-94
2022/12/25 05:18:30;;;;;;;19.75;6.40;;;7.60;99.90;;;;;;4963790;28;20023;-94
2022/12/25 05:20:56;;;;;;;18.90;6.50;;;7.50;99.90;;;;;;4970895;28;20129;-93
2022/12/25 05:23:21;;;;;;;15.98;6.03;;;7.50;99.90;;;;;;4988585;28;20026;-93
2022/12/25 05:25:47;;;;;;;17.50;6.18;;;7.50;99.90;;;;;;4994738;28;20042;-94
2022/12/25 05:28:13;;;;;;;23.15;6.72;;;7.40;99.90;;;;;;4963484;28;20015;-93
2022/12/25 05:30:38;;;;;;;22.17;6.53;;;7.40;99.90;;;;;;4973773;28;20056;-94
2022/12/25 05:33:04;;;;;;;16.52;6.72;;;7.30;99.90;;;;;;4963698;28;20067;-93
2022/12/25 05:35:29;;;;;;;19.58;6.13;;;7.30;99.90;;;;;;4983227;28;20039;-94
2022/12/25 05:37:55;;;;;;;26.48;7.45;;;7.20;99.90;;;;;;4978581;28;20034;-92
2022/12/25 05:40:21;;;;;;;22.73;6.82;;;7.20;99.90;;;;;;4986215;28;20399;-94
2022/12/25 05:42:46;;;;;;;17.80;6.25;;;7.20;99.90;;;;;;4979840;28;20026;-93
2022/12/25 05:45:12;;;;;;;20.77;6.45;;;7.20;99.90;;;;;;4977836;28;20038;-93
2022/12/25 05:47:38;;;;;;;17.33;7.15;;;7.20;99.90;;;;;;4993861;28;20487;-93
2022/12/25 05:50:04;;;;;;;19.77;7.85;;;7.20;99.90;;;;;;4978055;28;20067;-93
2022/12/25 05:52:33;;;;;;;20.65;7.18;;;7.10;99.90;;;;;;4978372;28;20023;-93
2022/12/25 05:54:59;;;;;;;21.95;8.70;;;7.10;99.90;;;;;;4979296;28;20023;-92
2022/12/25 05:57:28;;;;;;;19.67;8.05;;;7.10;99.90;;;;;;4980208;28;20221;-93
2022/12/25 05:59:53;;;;;;;18.65;8.30;;;7.10;99.90;;;;;;4973032;28;20027;-93
2022/12/25 06:02:19;;;;;;;21.92;7.47;;;7.10;99.90;;;;;;4980112;28;20037;-93
2022/12/25 06:04:44;;;;;;;25.42;9.18;;;7.10;99.90;;;;;;4976013;28;20049;-93
2022/12/25 06:07:10;;;;;;;23.90;8.52;;;7.20;99.90;;;;;;4979319;28;20391;-92
2022/12/25 06:09:35;;;;;;;22.35;9.18;;;7.20;99.90;;;;;;4974817;28;20485;-93
2022/12/25 06:12:01;;;;;;;23.42;9.63;;;7.20;99.90;;;;;;4988112;28;20469;-93
2022/12/25 06:14:27;;;;;;;17.52;9.73;;;7.20;99.90;;;;;;4989406;28;20539;-93
2022/12/25 06:16:53;;;;;;;27.65;9.38;;;7.30;99.90;;;;;;4974548;28;20026;-92
2022/12/25 06:19:21;;;;;;;22.60;10.35;;;7.30;99.90;;;;;;4979954;28;20109;-93
2022/12/25 06:21:47;;;;;;;20.80;8.95;;;7.40;99.90;;;;;;4994535;28;20057;-93
2022/12/25 06:24:13;;;;;;;19.15;8.43;;;7.40;99.90;;;;;;4971425;28;20022;-93
2022/12/25 06:26:38;;;;;;;20.55;9.57;;;7.50;99.90;;;;;;4998887;28;20060;-93
2022/12/25 06:29:04;;;;;;;25.20;9.40;;;7.50;99.90;;;;;;4978934;28;20088;-92
2022/12/25 06:31:30;;;;;;;17.70;9.32;;;7.50;99.90;;;;;;4978288;28;20062;-94
2022/12/25 06:33:55;;;;;;;16.15;8.27;;;7.60;99.90;;;;;;4976311;28;20092;-92
2022/12/25 06:36:24;;;;;;;19.60;8.23;;;7.60;99.90;;;;;;4997798;28;20038;-91
2022/12/25 06:38:50;;;;;;;20.95;8.35;;;7.70;99.90;;;;;;4977448;28;20611;-93
2022/12/25 06:41:18;;;;;;;17.30;8.32;;;7.80;99.90;;;;;;4982348;28;20058;-93
2022/12/25 06:43:49;;;;;;;17.60;7.88;;;7.80;99.90;;;;;;4977959;28;20026;-93
2022/12/25 06:46:16;;;;;;;20.20;8.00;;;7.90;99.90;;;;;;4994342;28;20070;-92
2022/12/25 06:48:48;;;;;;;15.35;7.68;;;8.00;99.90;;;;;;4993494;28;20141;-92
2022/12/25 06:51:19;;;;;;;15.50;8.18;;;8.00;99.90;;;;;;4978544;28;20031;-94
2022/12/25 06:53:45;;;;;;;20.98;8.65;;;8.00;99.90;;;;;;5012397;28;20068;-93
2022/12/25 06:56:14;;;;;;;15.63;8.20;;;8.00;99.90;;;;;;4990131;28;20344;-95
2022/12/25 06:58:44;;;;;;;22.17;10.85;;;8.10;99.90;;;;;;4979386;28;20049;-93
2022/12/25 07:01:13;;;;;;;19.25;9.50;;;8.20;99.90;;;;;;4984745;28;20061;-94
2022/12/25 07:03:41;;;;;;;19.95;9.02;;;8.20;99.90;;;;;;4980292;28;20026;-94
2022/12/25 07:06:06;;;;;;;16.67;6.88;;;8.20;99.90;;;;;;4975465;28;20041;-94
2022/12/25 07:08:32;;;;;;;19.35;8.07;;;8.30;99.90;;;;;;4972187;28;20027;-94
2022/12/25 07:10:58;;;;;;;20.38;8.27;;;8.30;99.90;;;;;;4969771;28;20084;-94
2022/12/25 07:13:23;;;;;;;20.23;8.02;;;8.40;99.90;;;;;;4997880;28;20022;-93
2022/12/25 07:15:55;;;;;;;16.40;7.72;;;8.40;99.90;;;;;;5007310;28;20116;-94
2022/12/25 07:18:21;;;;;;;21.75;8.13;;;8.40;99.90;;;;;;4979521;28;20023;-93
2022/12/25 07:20:46;;;;;;;20.10;8.73;;;8.40;99.90;;;;;;4978994;28;20066;-93
2022/12/25 07:23:12;;;;;;;19.10;8.50;;;8.40;99.90;;;;;;4980680;28;20019;-94
2022/12/25 07:25:37;;;;;;;19.73;8.15;;;8.50;99.90;;;;;;4978698;28;20495;-94
2022/12/25 07:28:03;;;;;;;18.65;8.27;;;8.50;99.90;;;;;;4976443;28;20035;-93
2022/12/25 07:30:29;;;;;;;17.27;8.02;;;8.50;99.90;;;;;;4981122;28;20033;-92
2022/12/25 07:32:55;;;;;;;22.50;8.55;;;8.60;99.90;;;;;;4975765;28;20022;-94
2022/12/25 07:35:21;;;;;;;18.83;8.38;;;8.50;99.90;;;;;;4980520;28;20125;-94
2022/12/25 07:37:46;;;;;;;21.85;9.02;;;8.60;99.90;;;;;;4982325;28;20452;-92
2022/12/25 07:40:12;;;;;;;22.38;9.20;;;8.60;99.90;;;;;;4962499;28;20026;-93
2022/12/25 07:42:37;;;;;;;22.52;8.75;;;8.60;99.90;;;;;;4974006;28;20056;-92
2022/12/25 07:45:04;;;;;;;20.77;8.25;;;8.60;99.90;;;;;;4973293;28;20460;-93
2022/12/25 07:47:30;;;;;;;21.92;9.07;;;8.70;99.90;;;;;;4995228;28;20030;-93
2022/12/25 07:49:55;;;;;;;27.10;9.75;;;8.70;99.90;;;;;;4978047;28;20129;-95
2022/12/25 07:52:21;;;;;;;18.67;8.93;;;8.70;99.90;;;;;;4992391;28;20031;-93
2022/12/25 07:54:47;;;;;;;21.05;8.80;;;8.70;99.90;;;;;;4986778;28;20458;-94
2022/12/25 07:57:12;;;;;;;15.70;8.32;;;8.70;99.90;;;;;;4979236;28;20027;-93
2022/12/25 07:59:38;;;;;;;22.65;8.40;;;8.70;99.90;;;;;;5008109;28;21248;-93
2022/12/25 08:02:03;;;;;;;22.50;8.20;;;8.70;99.90;;;;;;4995114;28;20034;-93
2022/12/25 08:04:29;;;;;;;18.15;7.60;;;8.70;99.90;;;;;;4973688;28;20039;-93
2022/12/25 08:06:55;;;;;;;19.65;8.30;;;8.70;99.90;;;;;;4974421;28;20028;-92
2022/12/25 08:09:20;;;;;;;23.20;8.40;;;8.80;99.90;;;;;;4953189;28;20475;-92
2022/12/25 08:11:46;;;;;;;17.50;7.85;;;8.80;99.90;;;;;;5007280;28;20114;-94
2022/12/25 08:14:13;;;;;;;17.58;8.52;;;8.80;99.90;;;;;;4979436;28;20030;-94
2022/12/25 08:16:40;;;;;;;18.02;8.38;;;8.80;99.90;;;;;;4979966;28;20402;-94
2022/12/25 08:19:09;;;;;;;18.73;8.20;;;8.80;99.90;;;;;;4995584;28;20068;-93
2022/12/25 08:21:35;;;;;;;15.90;8.20;;;8.90;99.90;;;;;;4988741;28;20521;-93
2022/12/25 08:24:01;;;;;;;19.02;8.02;;;8.80;99.90;;;;;;4976882;28;20031;-93
2022/12/25 08:26:27;;;;;;;14.85;7.68;;;8.80;99.90;;;;;;4984333;28;20034;-93
2022/12/25 08:28:53;;;;;;;19.17;7.45;;;8.90;99.90;;;;;;4996576;28;20034;-92
2022/12/25 08:31:20;;;;;;;22.35;9.55;;;8.80;99.90;;;;;;4998955;28;20030;-92
2022/12/25 08:33:47;;;;;;;19.95;8.27;;;8.90;99.90;;;;;;4980273;28;20022;-93
2022/12/25 08:36:12;;;;;;;21.65;7.78;;;8.80;99.90;;;;;;4966388;28;20502;-93
2022/12/25 08:38:39;;;;;;;16.48;8.23;;;8.90;99.90;;;;;;4992202;28;20027;-94
2022/12/25 08:41:05;;;;;;;17.38;7.63;;;8.90;99.90;;;;;;4973920;28;20062;-93
2022/12/25 08:43:30;;;;;;;19.73;8.00;;;8.90;99.90;;;;;;4975964;28;20034;-94
2022/12/25 08:45:56;;;;;;;18.75;7.90;;;8.90;99.90;;;;;;4978263;28;20043;-95
2022/12/25 08:48:22;;;;;;;19.52;7.35;;;8.90;99.90;;;;;;4998356;28;20043;-93
2022/12/25 08:50:49;;;;;;;16.70;8.60;;;8.80;99.90;;;;;;4973024;28;20037;-94
2022/12/25 08:53:14;;;;;;;14.55;7.50;;;8.90;99.90;;;;;;4978527;28;20035;-93
2022/12/25 08:55:40;;;;;;;14.95;7.25;;;8.90;99.90;;;;;;4987150;28;20113;-93
2022/12/25 08:58:06;;;;;;;13.48;6.00;;;8.90;99.90;;;;;;4979965;28;20082;-95
2022/12/25 09:00:31;;;;;;;15.70;7.15;;;8.90;99.90;;;;;;4976315;28;20030;-93
2022/12/25 09:02:57;;;;;;;13.52;6.60;;;8.90;99.90;;;;;;4981454;28;20054;-94
2022/12/25 09:05:22;;;;;;;15.35;7.07;;;9.00;99.90;;;;;;4975388;28;20100;-94
2022/12/25 09:07:48;;;;;;;15.57;7.55;;;9.00;99.90;;;;;;4981282;28;20380;-93
2022/12/25 09:10:14;;;;;;;13.55;6.80;;;9.00;99.90;;;;;;4997253;28;20030;-95
2022/12/25 09:12:39;;;;;;;15.15;7.28;;;9.00;99.90;;;;;;4972020;28;20027;-93
2022/12/25 09:15:05;;;;;;;13.30;6.20;;;9.00;99.90;;;;;;4979549;28;20038;-93
2022/12/25 09:17:32;;;;;;;15.57;6.72;;;9.00;99.90;;;;;;4974275;28;20035;-94
2022/12/25 09:19:57;;;;;;;15.32;6.50;;;9.00;99.90;;;;;;4979180;28;20023;-93
2022/12/25 09:22:23;;;;;;;15.15;6.47;;;9.00;99.90;;;;;;4994987;28;20129;-92
2022/12/25 09:24:49;;;;;;;13.55;6.68;;;9.00;99.90;;;;;;4982880;28;20041;-92
2022/12/25 09:27:14;;;;;;;15.18;6.10;;;9.00;99.90;;;;;;4998940;28;20026;-94
2022/12/25 09:29:40;;;;;;;15.88;5.38;;;9.00;99.90;;;;;;4975007;28;20029;-93
2022/12/25 09:32:06;;;;;;;13.90;6.05;;;9.10;99.90;;;;;;4980799;28;20027;-93
2022/12/25 09:34:31;;;;;;;12.38;6.03;;;9.00;99.90;;;;;;4997372;28;20023;-93
2022/12/25 09:36:57;;;;;;;13.05;6.13;;;9.10;99.90;;;;;;4975531;28;20057;-92
2022/12/25 09:39:23;;;;;;;12.15;5.80;;;9.10;99.90;;;;;;4977028;28;20031;-93
2022/12/25 09:42:03;;;;;;;13.38;6.35;;;9.10;99.90;;;;;;4992217;28;20022;-92
2022/12/25 09:44:36;;;;;;;13.20;6.15;;;9.10;99.90;;;;;;4979682;28;20098;-91
2022/12/25 09:47:06;;;;;;;11.50;6.05;;;9.10;99.90;;;;;;5007397;28;20030;-91
2022/12/25 09:49:39;;;;;;;16.50;5.82;;;9.10;99.90;;;;;;4978404;28;20075;-92
2022/12/25 09:52:15;;;;;;;;;;;9.20;99.90;;;;;;4963764;28;20031;-92
2022/12/25 09:54:53;;;;;;;12.50;5.38;;;9.10;99.90;;;;;;4989368;28;19956;-90
2022/12/25 09:57:18;;;;;;;11.50;6.03;;;9.10;99.90;;;;;;4983767;28;20043;-91
2022/12/25 09:59:46;;;;;;;13.52;5.80;;;9.20;99.90;;;;;;4972385;28;20027;-90
2022/12/25 10:02:54;;;;;;;13.20;5.85;;;9.20;99.90;;;;;;4977772;28;20033;-90
2022/12/25 10:05:46;;;;;;;14.32;6.13;;;9.20;99.90;;;;;;4931149;28;20079;-90
2022/12/25 10:08:29;;;;;;;14.43;5.72;;;9.30;99.90;;;;;;4987179;28;20035;-90
2022/12/25 10:11:18;;;;;;;13.13;5.05;;;9.30;99.90;;;;;;4978415;28;20030;-91
2022/12/25 10:14:12;;;;;;;15.02;6.13;;;9.30;99.90;;;;;;4974938;28;20035;-91
2022/12/25 10:17:00;;;;;;;7.90;5.20;;;9.40;99.90;;;;;;4987880;28;20033;-91
2022/12/25 10:19:51;;;;;;;12.20;5.75;;;9.40;99.90;;;;;;4978620;28;20121;-91
2022/12/25 10:22:30;;;;;;;13.10;6.35;;;9.40;99.90;;;;;;5010271;28;20093;-89
2022/12/25 10:24:58;;;;;;;12.50;5.95;;;9.40;99.90;;;;;;4996974;28;20045;-90
2022/12/25 10:27:48;;;;;;;12.60;6.72;;;9.40;99.90;;;;;;4969385;28;20054;-92
2022/12/25 10:30:25;;;;;;;12.68;5.65;;;9.40;99.90;;;;;;4980666;28;20027;-91
2022/12/25 10:32:52;;;;;;;11.45;6.18;;;9.40;99.90;;;;;;5007112;28;20022;-92
2022/12/25 10:35:20;;;;;;;13.23;5.90;;;9.40;99.90;;;;;;4980339;28;20026;-92
2022/12/25 10:37:56;;;;;;;14.13;6.30;;;9.40;99.90;;;;;;4969243;28;20372;-93
2022/12/25 10:40:21;;;;;;;12.52;5.82;;;9.40;99.90;;;;;;4973109;28;20161;-91
2022/12/25 10:42:53;;;;;;;13.82;6.22;;;9.40;99.90;;;;;;5009537;28;20117;-91
2022/12/25 10:45:19;;;;;;;15.38;5.97;;;9.30;99.90;;;;;;4976535;28;20047;-91
2022/12/25 10:47:44;;;;;;;14.48;6.47;;;9.30;99.90;;;;;;4977823;28;20030;-92
2022/12/25 10:50:23;;;;;;;10.48;5.65;;;9.30;99.90;;;;;;4995588;28;20038;-91
2022/12/25 10:53:03;;;;;;;11.50;5.80;;;9.30;99.90;;;;;;4988788;28;20031;-90
2022/12/25 10:55:29;;;;;;;13.88;5.88;;;9.30;99.90;;;;;;4975325;28;20058;-91
2022/12/25 10:57:56;;;;;;;13.57;5.82;;;9.40;99.90;;;;;;4966950;28;20023;-90
2022/12/25 11:00:27;;;;;;;9.52;6.10;;;9.30;99.90;;;;;;5008889;28;20034;-90
2022/12/25 11:02:53;;;;;;;10.07;5.90;;;9.40;99.90;;;;;;4976992;28;20102;-90
2022/12/25 11:05:28;;;;;;;15.57;6.22;;;9.40;99.90;;;;;;4969252;28;20138;-91
2022/12/25 11:07:54;;;;;;;14.60;6.55;;;9.30;99.90;;;;;;4986157;28;20677;-92
2022/12/25 11:10:27;;;;;;;13.52;6.75;;;9.30;99.90;;;;;;4981065;28;20381;-90
2022/12/25 11:12:53;;;;;;;;;;;9.30;99.90;;;;;;4962329;28;20030;-92
2022/12/25 11:15:43;;;;;;;16.77;6.32;;;9.30;99.90;;;;;;4987303;28;19960;-91
2022/12/25 11:18:18;;;;;;;16.73;6.88;;;9.30;99.90;;;;;;4972539;28;20038;-90
2022/12/25 11:20:49;;;;;;;20.48;7.30;;;9.30;99.90;;;;;;5009183;28;20019;-89
2022/12/25 11:23:19;;;;;;;15.60;6.68;;;9.30;99.90;;;;;;4976217;28;20027;-89
2022/12/25 11:25:57;;;;;;;13.25;6.82;;;9.30;99.90;;;;;;4958794;28;20034;-89
2022/12/25 11:28:24;;;;;;;15.25;7.10;;;9.30;99.90;;;;;;4958524;28;20038;-89
2022/12/25 11:30:56;;;;;;;15.43;7.70;;;9.30;99.90;;;;;;4975865;28;20476;-89
2022/12/25 11:33:27;;;;;;;14.55;7.95;;;9.30;99.90;;;;;;4976759;28;20562;-90
2022/12/25 11:35:56;;;;;;;19.52;7.65;;;9.30;99.90;;;;;;4990592;28;20035;-90
2022/12/25 11:38:23;;;;;;;11.05;6.78;;;9.30;99.90;;;;;;4973946;28;20031;-89
2022/12/25 11:40:53;;;;;;;13.27;7.40;;;9.30;99.90;;;;;;4974003;28;20086;-89
2022/12/25 11:43:40;;;;;;;13.90;7.85;;;9.30;99.90;;;;;;4976829;28;20031;-89
2022/12/25 11:46:17;;;;;;;12.57;6.85;;;9.40;99.90;;;;;;4992316;28;20041;-88
2022/12/25 11:48:56;;;;;;;17.00;7.63;;;9.40;99.90;;;;;;4973103;28;20051;-89
2022/12/25 11:51:25;;;;;;;18.92;8.25;;;9.40;99.90;;;;;;4992771;28;20031;-88
2022/12/25 11:53:54;;;;;;;13.60;6.90;;;9.40;99.90;;;;;;4987258;28;20026;-88
2022/12/25 11:56:23;;;;;;;16.10;6.78;;;9.50;99.90;;;;;;4971510;28;20046;-88
2022/12/25 11:58:59;;;;;;;15.82;7.18;;;9.50;99.90;;;;;;4990469;28;20039;-88
2022/12/25 12:01:33;;;;;;;15.40;7.63;;;9.50;99.90;;;;;;5010657;28;20022;-88
2022/12/25 12:04:00;;;;;;;17.45;7.32;;;9.50;99.90;;;;;;4972669;28;20126;-89
2022/12/25 12:07:01;;;;;;;16.70;8.30;;;9.60;99.90;;;;;;4976905;28;20113;-89
2022/12/25 12:09:33;;;;;;;15.02;6.65;;;9.60;99.90;;;;;;4975155;28;20023;-89
2022/12/25 12:12:19;;;;;;;12.75;6.90;;;9.60;99.90;;;;;;4975379;28;20026;-89
2022/12/25 12:15:02;;;;;;;16.52;7.50;;;9.60;99.90;;;;;;4959676;28;20113;-89
2022/12/25 12:17:28;;;;;;;16.30;7.25;;;9.60;99.90;;;;;;4973268;28;20392;-90
2022/12/25 12:19:53;;;;;;;14.00;6.82;;;9.60;99.90;;;;;;4962933;28;20035;-89
2022/12/25 12:22:26;;;;;;;21.05;8.02;;;9.60;99.90;;;;;;4970511;28;20022;-88
2022/12/25 12:24:54;;;;;;;;;;;9.60;99.90;;;;;;4986050;28;20042;-89
2022/12/25 12:27:26;;;;;;;11.05;6.55;;;9.60;99.90;;;;;;4978156;28;19917;-89
2022/12/25 12:29:55;;;;;;;17.92;8.27;;;9.60;99.90;;;;;;4994349;28;20027;-89
2022/12/25 12:32:33;;;;;;;14.52;7.38;;;9.60;99.90;;;;;;4985437;28;20034;-89
2022/12/25 12:35:05;;;;;;;16.98;7.43;;;9.60;99.90;;;;;;4965288;28;20024;-89
2022/12/25 12:37:35;;;;;;;15.95;6.80;;;9.60;99.90;;;;;;4977524;28;20061;-88
2022/12/25 12:40:04;;;;;;;13.35;7.00;;;9.60;99.90;;;;;;4990354;28;20026;-89
2022/12/25 12:42:34;;;;;;;12.25;6.88;;;9.70;99.90;;;;;;4978966;28;20037;-89
2022/12/25 12:45:14;;;;;;;18.20;7.97;;;9.60;99.90;;;;;;4975453;28;20030;-89
2022/12/25 12:47:45;;;;;;;15.60;8.35;;;9.70;99.90;;;;;;4963993;28;20062;-90
2022/12/25 12:50:29;;;;;;;17.45;8.90;;;9.70;99.90;;;;;;4961587;28;20046;-90
2022/12/25 12:52:55;;;;;;;17.23;8.40;;;9.70;99.90;;;;;;4984556;28;20083;-90
2022/12/25 12:55:33;;;;;;;17.90;8.55;;;9.70;99.90;;;;;;4991507;28;20505;-90
2022/12/25 12:58:00;;;;;;;18.35;9.27;;;9.70;99.90;;;;;;4979244;28;20101;-91
2022/12/25 13:00:35;;;;;;;16.40;9.48;;;9.70;99.90;;;;;;4978935;28;20391;-90
2022/12/25 13:03:09;;;;;;;16.00;9.45;;;9.70;99.90;;;;;;4981051;28;20035;-90
2022/12/25 13:05:54;;;;;;;21.23;10.32;;;9.70;99.90;;;;;;4979046;28;20042;-90
2022/12/25 13:08:44;;;;;;;18.45;9.68;;;9.70;99.90;;;;;;4970674;28;20035;-90
2022/12/25 13:11:12;;;;;;;17.45;10.15;;;9.60;99.90;;;;;;5007704;28;20066;-90
2022/12/25 13:13:44;;;;;;;20.00;10.35;;;9.60;99.90;;;;;;5009311;28;20076;-89
2022/12/25 13:16:21;;;;;;;17.33;9.80;;;9.60;99.90;;;;;;4970071;28;20038;-90
2022/12/25 13:18:49;;;;;;;20.20;10.55;;;9.60;99.90;;;;;;4972455;28;20016;-90
2022/12/25 13:21:19;;;;;;;19.55;10.90;;;9.60;99.90;;;;;;4969124;28;20053;-89
2022/12/25 13:23:45;;;;;;;19.45;10.57;;;9.60;99.90;;;;;;4973672;28;20031;-89
2022/12/25 13:26:16;;;;;;;20.33;11.07;;;9.70;99.90;;;;;;4981077;28;20046;-89
2022/12/25 13:28:44;;;;;;;17.45;11.70;;;9.60;99.90;;;;;;4984132;28;20018;-90
2022/12/25 13:31:20;;;;;;;20.48;12.80;;;9.70;99.90;;;;;;4996247;28;20034;-88
2022/12/25 13:33:54;;;;;;;21.45;11.43;;;9.70;99.90;;;;;;4984853;28;20030;-89
2022/12/25 13:36:19;;;;;;;19.58;11.90;;;9.70;99.90;;;;;;4998016;28;20033;-89
2022/12/25 13:38:48;;;;;;;20.80;12.10;;;9.70;99.90;;;;;;5007279;28;20134;-89
2022/12/25 13:44:12;;;;;;;21.90;12.27;;;9.70;99.90;;;;;;4984530;28;20049;-89
2022/12/25 13:46:38;;;;;;;20.20;11.82;;;9.70;99.90;;;;;;4986639;28;20440;-90
2022/12/25 13:49:16;;;;;;;20.83;13.27;;;9.70;99.90;;;;;;5001464;28;20047;-92
2022/12/25 13:51:42;;;;;;;21.38;12.48;;;9.70;99.90;;;;;;4959391;28;20027;-91
2022/12/25 13:54:10;;;;;;;21.65;12.57;;;9.70;99.90;;;;;;4978652;28;20444;-89
2022/12/25 13:56:36;;;;;;;20.50;13.27;;;9.70;99.90;;;;;;4980311;28;20467;-90
2022/12/25 13:59:03;;;;;;;23.48;13.55;;;9.70;99.90;;;;;;4980025;28;20126;-90
2022/12/25 14:01:29;;;;;;;26.20;14.02;;;9.70;99.90;;;;;;4977405;28;20023;-89
2022/12/25 14:03:55;;;;;;;24.67;13.35;;;9.70;99.90;;;;;;4976428;28;20034;-90
2022/12/25 14:06:29;;;;;;;23.92;13.60;;;9.70;99.90;;;;;;4987951;28;20069;-90
2022/12/25 14:08:57;;;;;;;27.20;14.82;;;9.70;99.90;;;;;;4977506;28;20500;-88
2022/12/25 14:11:25;;;;;;;20.88;13.68;;;9.70;99.90;;;;;;4988887;28;20038;-89
2022/12/25 14:13:56;;;;;;;25.60;13.23;;;9.70;99.90;;;;;;5002427;28;20030;-89
2022/12/25 14:16:22;;;;;;;22.27;14.00;;;9.80;99.90;;;;;;4987536;28;20023;-89
2022/12/25 14:18:56;;;;;;;26.63;13.43;;;9.80;99.90;;;;;;4974260;28;20042;-90
2022/12/25 14:21:29;;;;;;;21.88;12.90;;;9.80;99.90;;;;;;4966411;28;20853;-90
2022/12/25 14:23:55;;;;;;;20.63;12.77;;;9.80;99.90;;;;;;4982002;28;20387;-90
2022/12/25 14:26:26;;;;;;;20.42;12.45;;;9.80;99.90;;;;;;4984912;28;20055;-89
2022/12/25 14:29:06;;;;;;;21.25;13.48;;;9.80;99.90;;;;;;4987393;28;20030;-91
2022/12/25 14:31:33;;;;;;;20.25;13.05;;;9.80;99.90;;;;;;4984032;28;20031;-89
2022/12/25 14:34:01;;;;;;;23.75;13.23;;;9.80;99.90;;;;;;4977537;28;20106;-90
2022/12/25 14:36:29;;;;;;;23.67;13.75;;;9.70;99.90;;;;;;4975983;28;20057;-89
2022/12/25 14:38:58;;;;;;;26.67;13.52;;;9.70;99.90;;;;;;4991137;28;20086;-89